sensor_id;sensor_type;location;lat;lon;timestamp;P1;durP1;ratioP1;P2;durP2;ratioP2
52940;SDS011;62001;53.366;6.636;2023-07-29T00:00:42;23.02;;;16.83;;
52940;SDS011;62001;53.366;6.636;2023-07-29T00:03:09;23.27;;;17.77;;
52940;SDS011;62001;53.366;6.636;2023-07-29T00:05:36;20.42;;;15.10;;
52940;SDS011;62001;53.366;6.636;2023-07-29T00:08:02;19.42;;;15.27;;
52940;SDS011;62001;53.366;6.636;2023-07-29T00:10:28;20.27;;;15.95;;
52940;SDS011;62001;53.366;6.636;2023-07-29T00:12:56;18.10;;;15.23;;
52940;SDS011;62001;53.366;6.636;2023-07-29T00:15:22;17.23;;;14.32;;
52940;SDS011;62001;53.366;6.636;2023-07-29T00:17:48;18.27;;;14.85;;
52940;SDS011;62001;53.366;6.636;2023-07-29T00:20:14;20.40;;;14.43;;
52940;SDS011;62001;53.366;6.636;2023-07-29T00:22:40;17.02;;;13.65;;
52940;SDS011;62001;53.366;6.636;2023-07-29T00:25:06;20.08;;;15.05;;
52940;SDS011;62001;53.366;6.636;2023-07-29T00:27:32;18.55;;;14.05;;
52940;SDS011;62001;53.366;6.636;2023-07-29T00:29:58;19.45;;;13.52;;
52940;SDS011;62001;53.366;6.636;2023-07-29T00:32:24;20.33;;;13.38;;
52940;SDS011;62001;53.366;6.636;2023-07-29T00:34:50;17.25;;;13.30;;
52940;SDS011;62001;53.366;6.636;2023-07-29T00:37:16;16.65;;;12.82;;
52940;SDS011;62001;53.366;6.636;2023-07-29T00:39:41;16.17;;;13.10;;
52940;SDS011;62001;53.366;6.636;2023-07-29T00:42:08;15.90;;;13.07;;
52940;SDS011;62001;53.366;6.636;2023-07-29T00:44:34;17.05;;;13.70;;
52940;SDS011;62001;53.366;6.636;2023-07-29T00:47:00;17.00;;;12.98;;
52940;SDS011;62001;53.366;6.636;2023-07-29T00:49:28;15.35;;;12.45;;
52940;SDS011;62001;53.366;6.636;2023-07-29T00:51:54;14.48;;;12.73;;
52940;SDS011;62001;53.366;6.636;2023-07-29T00:54:20;14.35;;;12.18;;
52940;SDS011;62001;53.366;6.636;2023-07-29T00:56:46;16.70;;;12.98;;
52940;SDS011;62001;53.366;6.636;2023-07-29T00:59:12;15.50;;;12.73;;
52940;SDS011;62001;53.366;6.636;2023-07-29T01:01:38;16.20;;;13.10;;
52940;SDS011;62001;53.366;6.636;2023-07-29T01:04:04;16.75;;;12.07;;
52940;SDS011;62001;53.366;6.636;2023-07-29T01:14:56;19.58;;;13.43;;
52940;SDS011;62001;53.366;6.636;2023-07-29T01:17:49;17.33;;;13.07;;
52940;SDS011;62001;53.366;6.636;2023-07-29T01:20:19;17.38;;;13.13;;
52940;SDS011;62001;53.366;6.636;2023-07-29T01:22:46;14.07;;;11.90;;
52940;SDS011;62001;53.366;6.636;2023-07-29T01:25:13;14.23;;;11.52;;
52940;SDS011;62001;53.366;6.636;2023-07-29T01:27:40;13.85;;;12.05;;
52940;SDS011;62001;53.366;6.636;2023-07-29T01:30:07;14.88;;;12.80;;
52940;SDS011;62001;53.366;6.636;2023-07-29T01:35:29;15.93;;;11.50;;
52940;SDS011;62001;53.366;6.636;2023-07-29T01:40:28;16.70;;;11.73;;
52940;SDS011;62001;53.366;6.636;2023-07-29T01:42:54;16.30;;;11.38;;
52940;SDS011;62001;53.366;6.636;2023-07-29T01:45:24;13.98;;;12.35;;
52940;SDS011;62001;53.366;6.636;2023-07-29T01:47:53;13.10;;;11.68;;
52940;SDS011;62001;53.366;6.636;2023-07-29T01:50:19;15.98;;;13.13;;
52940;SDS011;62001;53.366;6.636;2023-07-29T01:52:45;17.83;;;12.48;;
52940;SDS011;62001;53.366;6.636;2023-07-29T01:55:10;14.90;;;12.60;;
52940;SDS011;62001;53.366;6.636;2023-07-29T01:57:36;18.25;;;13.25;;
52940;SDS011;62001;53.366;6.636;2023-07-29T02:00:02;15.75;;;12.25;;
52940;SDS011;62001;53.366;6.636;2023-07-29T02:02:29;15.75;;;12.35;;
52940;SDS011;62001;53.366;6.636;2023-07-29T02:04:55;14.65;;;12.45;;
52940;SDS011;62001;53.366;6.636;2023-07-29T02:07:21;15.52;;;12.40;;
52940;SDS011;62001;53.366;6.636;2023-07-29T02:09:47;15.75;;;12.80;;
52940;SDS011;62001;53.366;6.636;2023-07-29T02:12:12;16.60;;;12.40;;
52940;SDS011;62001;53.366;6.636;2023-07-29T02:14:38;16.15;;;12.73;;
52940;SDS011;62001;53.366;6.636;2023-07-29T02:17:04;16.42;;;12.75;;
52940;SDS011;62001;53.366;6.636;2023-07-29T02:19:30;15.13;;;12.68;;
52940;SDS011;62001;53.366;6.636;2023-07-29T02:21:56;13.70;;;12.15;;
52940;SDS011;62001;53.366;6.636;2023-07-29T02:24:22;14.68;;;12.63;;
52940;SDS011;62001;53.366;6.636;2023-07-29T02:26:47;16.98;;;13.30;;
52940;SDS011;62001;53.366;6.636;2023-07-29T02:29:13;15.45;;;13.70;;
52940;SDS011;62001;53.366;6.636;2023-07-29T02:31:39;18.70;;;13.00;;
52940;SDS011;62001;53.366;6.636;2023-07-29T02:34:05;14.80;;;12.80;;
52940;SDS011;62001;53.366;6.636;2023-07-29T02:36:31;15.38;;;12.45;;
52940;SDS011;62001;53.366;6.636;2023-07-29T02:38:57;15.30;;;12.23;;
52940;SDS011;62001;53.366;6.636;2023-07-29T02:41:23;19.10;;;13.52;;
52940;SDS011;62001;53.366;6.636;2023-07-29T02:43:49;16.70;;;12.10;;
52940;SDS011;62001;53.366;6.636;2023-07-29T02:46:15;14.65;;;11.93;;
52940;SDS011;62001;53.366;6.636;2023-07-29T02:48:42;15.27;;;12.65;;
52940;SDS011;62001;53.366;6.636;2023-07-29T02:51:09;16.15;;;12.98;;
52940;SDS011;62001;53.366;6.636;2023-07-29T02:53:35;16.80;;;12.13;;
52940;SDS011;62001;53.366;6.636;2023-07-29T02:56:04;15.43;;;12.90;;
52940;SDS011;62001;53.366;6.636;2023-07-29T02:58:31;16.33;;;14.02;;
52940;SDS011;62001;53.366;6.636;2023-07-29T03:01:00;16.38;;;13.48;;
52940;SDS011;62001;53.366;6.636;2023-07-29T03:03:28;19.27;;;13.77;;
52940;SDS011;62001;53.366;6.636;2023-07-29T03:05:58;16.88;;;13.52;;
52940;SDS011;62001;53.366;6.636;2023-07-29T03:08:28;19.25;;;14.40;;
52940;SDS011;62001;53.366;6.636;2023-07-29T03:10:54;18.17;;;13.88;;
52940;SDS011;62001;53.366;6.636;2023-07-29T03:13:21;18.40;;;13.82;;
52940;SDS011;62001;53.366;6.636;2023-07-29T03:15:47;17.75;;;13.63;;
52940;SDS011;62001;53.366;6.636;2023-07-29T03:18:13;18.75;;;13.93;;
52940;SDS011;62001;53.366;6.636;2023-07-29T03:20:38;15.38;;;12.90;;
52940;SDS011;62001;53.366;6.636;2023-07-29T03:23:06;16.38;;;13.15;;
52940;SDS011;62001;53.366;6.636;2023-07-29T03:25:32;19.40;;;13.50;;
52940;SDS011;62001;53.366;6.636;2023-07-29T03:27:58;16.77;;;12.98;;
52940;SDS011;62001;53.366;6.636;2023-07-29T03:30:24;15.70;;;12.82;;
52940;SDS011;62001;53.366;6.636;2023-07-29T03:32:50;18.45;;;13.40;;
52940;SDS011;62001;53.366;6.636;2023-07-29T03:35:16;15.30;;;13.00;;
52940;SDS011;62001;53.366;6.636;2023-07-29T03:37:42;19.52;;;13.52;;
52940;SDS011;62001;53.366;6.636;2023-07-29T03:40:08;20.52;;;13.88;;
52940;SDS011;62001;53.366;6.636;2023-07-29T03:42:34;18.73;;;12.90;;
52940;SDS011;62001;53.366;6.636;2023-07-29T03:45:01;17.13;;;13.20;;
52940;SDS011;62001;53.366;6.636;2023-07-29T03:47:27;16.27;;;12.52;;
52940;SDS011;62001;53.366;6.636;2023-07-29T03:49:53;18.90;;;14.25;;
52940;SDS011;62001;53.366;6.636;2023-07-29T03:52:19;18.00;;;12.20;;
52940;SDS011;62001;53.366;6.636;2023-07-29T03:54:45;15.90;;;12.82;;
52940;SDS011;62001;53.366;6.636;2023-07-29T03:57:11;16.38;;;13.07;;
52940;SDS011;62001;53.366;6.636;2023-07-29T03:59:36;16.63;;;13.40;;
52940;SDS011;62001;53.366;6.636;2023-07-29T04:02:02;19.25;;;13.77;;
52940;SDS011;62001;53.366;6.636;2023-07-29T04:04:28;21.00;;;13.43;;
52940;SDS011;62001;53.366;6.636;2023-07-29T04:06:54;17.42;;;13.13;;
52940;SDS011;62001;53.366;6.636;2023-07-29T04:09:20;17.08;;;12.25;;
52940;SDS011;62001;53.366;6.636;2023-07-29T04:11:46;19.25;;;13.25;;
52940;SDS011;62001;53.366;6.636;2023-07-29T04:14:12;20.27;;;13.45;;
52940;SDS011;62001;53.366;6.636;2023-07-29T04:16:38;19.42;;;13.38;;
52940;SDS011;62001;53.366;6.636;2023-07-29T04:19:04;17.85;;;12.80;;
52940;SDS011;62001;53.366;6.636;2023-07-29T04:21:30;21.75;;;12.75;;
52940;SDS011;62001;53.366;6.636;2023-07-29T04:23:55;18.85;;;12.48;;
52940;SDS011;62001;53.366;6.636;2023-07-29T04:26:21;19.70;;;12.30;;
52940;SDS011;62001;53.366;6.636;2023-07-29T04:28:47;18.17;;;13.25;;
52940;SDS011;62001;53.366;6.636;2023-07-29T04:31:13;17.80;;;12.85;;
52940;SDS011;62001;53.366;6.636;2023-07-29T04:33:39;19.33;;;12.93;;
52940;SDS011;62001;53.366;6.636;2023-07-29T04:36:04;16.08;;;12.50;;
52940;SDS011;62001;53.366;6.636;2023-07-29T04:38:31;16.02;;;12.60;;
52940;SDS011;62001;53.366;6.636;2023-07-29T04:40:58;16.50;;;12.23;;
52940;SDS011;62001;53.366;6.636;2023-07-29T04:43:27;18.08;;;12.05;;
52940;SDS011;62001;53.366;6.636;2023-07-29T04:45:53;15.93;;;11.85;;
52940;SDS011;62001;53.366;6.636;2023-07-29T04:48:19;16.42;;;11.48;;
52940;SDS011;62001;53.366;6.636;2023-07-29T04:50:45;20.38;;;12.32;;
52940;SDS011;62001;53.366;6.636;2023-07-29T04:53:11;21.05;;;11.63;;
52940;SDS011;62001;53.366;6.636;2023-07-29T04:55:37;18.10;;;11.98;;
52940;SDS011;62001;53.366;6.636;2023-07-29T04:58:03;19.75;;;12.02;;
52940;SDS011;62001;53.366;6.636;2023-07-29T05:00:28;15.77;;;9.93;;
52940;SDS011;62001;53.366;6.636;2023-07-29T05:02:54;16.08;;;10.18;;
52940;SDS011;62001;53.366;6.636;2023-07-29T05:05:20;15.02;;;9.88;;
52940;SDS011;62001;53.366;6.636;2023-07-29T05:07:46;13.50;;;9.38;;
52940;SDS011;62001;53.366;6.636;2023-07-29T05:10:12;11.13;;;9.15;;
52940;SDS011;62001;53.366;6.636;2023-07-29T05:12:38;14.57;;;9.77;;
52940;SDS011;62001;53.366;6.636;2023-07-29T05:15:04;11.82;;;8.75;;
52940;SDS011;62001;53.366;6.636;2023-07-29T05:17:30;11.93;;;8.48;;
52940;SDS011;62001;53.366;6.636;2023-07-29T05:19:56;12.07;;;8.75;;
52940;SDS011;62001;53.366;6.636;2023-07-29T05:22:22;11.73;;;8.38;;
52940;SDS011;62001;53.366;6.636;2023-07-29T05:24:48;10.13;;;9.13;;
52940;SDS011;62001;53.366;6.636;2023-07-29T05:27:14;12.95;;;8.15;;
52940;SDS011;62001;53.366;6.636;2023-07-29T05:29:39;13.35;;;8.23;;
52940;SDS011;62001;53.366;6.636;2023-07-29T05:32:05;13.73;;;8.32;;
52940;SDS011;62001;53.366;6.636;2023-07-29T05:34:31;11.07;;;7.80;;
52940;SDS011;62001;53.366;6.636;2023-07-29T05:36:57;10.45;;;7.85;;
52940;SDS011;62001;53.366;6.636;2023-07-29T05:39:23;12.70;;;8.35;;
52940;SDS011;62001;53.366;6.636;2023-07-29T05:41:49;12.63;;;8.52;;
52940;SDS011;62001;53.366;6.636;2023-07-29T05:44:15;9.02;;;7.47;;
52940;SDS011;62001;53.366;6.636;2023-07-29T05:46:41;9.73;;;7.22;;
52940;SDS011;62001;53.366;6.636;2023-07-29T05:49:06;10.02;;;7.43;;
52940;SDS011;62001;53.366;6.636;2023-07-29T05:51:32;16.63;;;7.82;;
52940;SDS011;62001;53.366;6.636;2023-07-29T05:53:58;9.80;;;7.15;;
52940;SDS011;62001;53.366;6.636;2023-07-29T05:56:24;9.70;;;6.68;;
52940;SDS011;62001;53.366;6.636;2023-07-29T05:58:50;11.13;;;7.05;;
52940;SDS011;62001;53.366;6.636;2023-07-29T06:01:16;11.90;;;6.82;;
52940;SDS011;62001;53.366;6.636;2023-07-29T06:03:42;8.48;;;6.50;;
52940;SDS011;62001;53.366;6.636;2023-07-29T06:06:08;11.40;;;6.47;;
52940;SDS011;62001;53.366;6.636;2023-07-29T06:08:34;10.48;;;6.57;;
52940;SDS011;62001;53.366;6.636;2023-07-29T06:11:00;12.82;;;6.88;;
52940;SDS011;62001;53.366;6.636;2023-07-29T06:13:26;12.32;;;6.40;;
52940;SDS011;62001;53.366;6.636;2023-07-29T06:15:52;13.55;;;6.75;;
52940;SDS011;62001;53.366;6.636;2023-07-29T06:18:18;12.48;;;6.70;;
52940;SDS011;62001;53.366;6.636;2023-07-29T06:20:44;11.65;;;6.43;;
52940;SDS011;62001;53.366;6.636;2023-07-29T06:23:10;9.93;;;6.78;;
52940;SDS011;62001;53.366;6.636;2023-07-29T06:25:36;11.23;;;6.25;;
52940;SDS011;62001;53.366;6.636;2023-07-29T06:28:01;8.52;;;5.97;;
52940;SDS011;62001;53.366;6.636;2023-07-29T06:30:27;8.68;;;5.90;;
52940;SDS011;62001;53.366;6.636;2023-07-29T06:32:53;7.82;;;5.57;;
52940;SDS011;62001;53.366;6.636;2023-07-29T06:35:20;12.48;;;6.35;;
52940;SDS011;62001;53.366;6.636;2023-07-29T06:37:45;11.13;;;5.68;;
52940;SDS011;62001;53.366;6.636;2023-07-29T06:40:11;8.02;;;5.60;;
52940;SDS011;62001;53.366;6.636;2023-07-29T06:42:37;8.00;;;5.38;;
52940;SDS011;62001;53.366;6.636;2023-07-29T06:45:04;8.48;;;5.00;;
52940;SDS011;62001;53.366;6.636;2023-07-29T06:47:30;7.50;;;5.00;;
52940;SDS011;62001;53.366;6.636;2023-07-29T06:49:56;10.45;;;5.47;;
52940;SDS011;62001;53.366;6.636;2023-07-29T06:52:22;9.50;;;5.50;;
52940;SDS011;62001;53.366;6.636;2023-07-29T06:54:48;8.80;;;4.55;;
52940;SDS011;62001;53.366;6.636;2023-07-29T06:57:14;9.85;;;4.93;;
52940;SDS011;62001;53.366;6.636;2023-07-29T06:59:40;9.00;;;5.38;;
52940;SDS011;62001;53.366;6.636;2023-07-29T07:02:06;8.50;;;5.13;;
52940;SDS011;62001;53.366;6.636;2023-07-29T07:04:32;10.60;;;4.95;;
52940;SDS011;62001;53.366;6.636;2023-07-29T07:06:58;10.38;;;4.65;;
52940;SDS011;62001;53.366;6.636;2023-07-29T07:09:24;9.40;;;5.18;;
52940;SDS011;62001;53.366;6.636;2023-07-29T07:11:49;11.73;;;5.47;;
52940;SDS011;62001;53.366;6.636;2023-07-29T07:14:15;11.55;;;5.35;;
52940;SDS011;62001;53.366;6.636;2023-07-29T07:16:41;9.75;;;4.95;;
52940;SDS011;62001;53.366;6.636;2023-07-29T07:19:07;8.88;;;5.15;;
52940;SDS011;62001;53.366;6.636;2023-07-29T07:21:33;9.10;;;4.68;;
52940;SDS011;62001;53.366;6.636;2023-07-29T07:23:59;11.88;;;4.85;;
52940;SDS011;62001;53.366;6.636;2023-07-29T07:26:25;9.65;;;5.07;;
52940;SDS011;62001;53.366;6.636;2023-07-29T07:28:51;7.88;;;4.57;;
52940;SDS011;62001;53.366;6.636;2023-07-29T07:31:17;9.90;;;5.30;;
52940;SDS011;62001;53.366;6.636;2023-07-29T07:33:43;11.85;;;5.38;;
52940;SDS011;62001;53.366;6.636;2023-07-29T07:36:09;11.27;;;5.43;;
52940;SDS011;62001;53.366;6.636;2023-07-29T07:38:35;9.32;;;5.15;;
52940;SDS011;62001;53.366;6.636;2023-07-29T07:41:01;8.27;;;4.80;;
52940;SDS011;62001;53.366;6.636;2023-07-29T07:43:27;10.27;;;5.30;;
52940;SDS011;62001;53.366;6.636;2023-07-29T07:46:00;11.63;;;4.90;;
52940;SDS011;62001;53.366;6.636;2023-07-29T07:48:27;14.18;;;4.88;;
52940;SDS011;62001;53.366;6.636;2023-07-29T07:50:53;10.90;;;5.13;;
52940;SDS011;62001;53.366;6.636;2023-07-29T07:53:19;10.02;;;4.65;;
52940;SDS011;62001;53.366;6.636;2023-07-29T07:55:47;8.52;;;4.55;;
52940;SDS011;62001;53.366;6.636;2023-07-29T07:58:13;9.55;;;4.78;;
52940;SDS011;62001;53.366;6.636;2023-07-29T08:00:39;10.93;;;4.70;;
52940;SDS011;62001;53.366;6.636;2023-07-29T08:03:05;12.95;;;4.90;;
52940;SDS011;62001;53.366;6.636;2023-07-29T08:05:31;10.00;;;4.97;;
52940;SDS011;62001;53.366;6.636;2023-07-29T08:07:57;12.18;;;4.60;;
52940;SDS011;62001;53.366;6.636;2023-07-29T08:10:23;9.15;;;4.55;;
52940;SDS011;62001;53.366;6.636;2023-07-29T08:12:49;12.40;;;4.68;;
52940;SDS011;62001;53.366;6.636;2023-07-29T08:15:15;9.35;;;4.60;;
52940;SDS011;62001;53.366;6.636;2023-07-29T08:17:41;10.63;;;4.80;;
52940;SDS011;62001;53.366;6.636;2023-07-29T08:20:07;9.73;;;4.65;;
52940;SDS011;62001;53.366;6.636;2023-07-29T08:22:33;10.18;;;4.55;;
52940;SDS011;62001;53.366;6.636;2023-07-29T08:24:59;7.90;;;4.00;;
52940;SDS011;62001;53.366;6.636;2023-07-29T08:27:24;9.15;;;3.50;;
52940;SDS011;62001;53.366;6.636;2023-07-29T08:29:50;10.18;;;4.10;;
52940;SDS011;62001;53.366;6.636;2023-07-29T08:32:16;7.97;;;3.42;;
52940;SDS011;62001;53.366;6.636;2023-07-29T08:34:42;10.57;;;3.70;;
52940;SDS011;62001;53.366;6.636;2023-07-29T08:37:08;7.43;;;3.40;;
52940;SDS011;62001;53.366;6.636;2023-07-29T08:39:34;6.60;;;3.35;;
52940;SDS011;62001;53.366;6.636;2023-07-29T08:42:07;11.32;;;4.30;;
52940;SDS011;62001;53.366;6.636;2023-07-29T08:44:36;8.13;;;3.55;;
52940;SDS011;62001;53.366;6.636;2023-07-29T08:47:06;10.23;;;3.83;;
52940;SDS011;62001;53.366;6.636;2023-07-29T08:49:32;8.00;;;3.42;;
52940;SDS011;62001;53.366;6.636;2023-07-29T08:51:59;8.73;;;3.70;;
52940;SDS011;62001;53.366;6.636;2023-07-29T08:54:26;6.75;;;3.30;;
52940;SDS011;62001;53.366;6.636;2023-07-29T08:56:52;7.13;;;3.58;;
52940;SDS011;62001;53.366;6.636;2023-07-29T08:59:18;6.18;;;2.95;;
52940;SDS011;62001;53.366;6.636;2023-07-29T09:01:45;5.88;;;3.03;;
52940;SDS011;62001;53.366;6.636;2023-07-29T09:04:12;8.27;;;2.72;;
52940;SDS011;62001;53.366;6.636;2023-07-29T09:06:39;6.43;;;3.05;;
52940;SDS011;62001;53.366;6.636;2023-07-29T09:09:08;8.40;;;2.65;;
52940;SDS011;62001;53.366;6.636;2023-07-29T09:11:34;10.30;;;2.92;;
52940;SDS011;62001;53.366;6.636;2023-07-29T09:14:01;6.20;;;3.10;;
52940;SDS011;62001;53.366;6.636;2023-07-29T09:16:27;8.85;;;3.05;;
52940;SDS011;62001;53.366;6.636;2023-07-29T09:18:53;5.45;;;2.42;;
52940;SDS011;62001;53.366;6.636;2023-07-29T09:21:23;5.50;;;2.78;;
52940;SDS011;62001;53.366;6.636;2023-07-29T09:23:52;9.02;;;3.03;;
52940;SDS011;62001;53.366;6.636;2023-07-29T09:26:27;9.10;;;2.92;;
52940;SDS011;62001;53.366;6.636;2023-07-29T09:28:57;7.13;;;2.90;;
52940;SDS011;62001;53.366;6.636;2023-07-29T09:31:24;6.95;;;2.65;;
52940;SDS011;62001;53.366;6.636;2023-07-29T09:36:26;9.43;;;2.60;;
52940;SDS011;62001;53.366;6.636;2023-07-29T09:38:55;10.02;;;2.30;;
52940;SDS011;62001;53.366;6.636;2023-07-29T09:41:25;5.65;;;2.70;;
52940;SDS011;62001;53.366;6.636;2023-07-29T09:43:59;6.15;;;2.30;;
52940;SDS011;62001;53.366;6.636;2023-07-29T09:46:36;6.38;;;2.10;;
52940;SDS011;62001;53.366;6.636;2023-07-29T09:49:03;3.78;;;2.20;;
52940;SDS011;62001;53.366;6.636;2023-07-29T09:51:31;3.50;;;1.92;;
52940;SDS011;62001;53.366;6.636;2023-07-29T09:53:57;5.72;;;2.20;;
52940;SDS011;62001;53.366;6.636;2023-07-29T09:56:32;5.32;;;2.15;;
52940;SDS011;62001;53.366;6.636;2023-07-29T09:59:07;6.35;;;1.90;;
52940;SDS011;62001;53.366;6.636;2023-07-29T10:01:38;4.03;;;1.85;;
52940;SDS011;62001;53.366;6.636;2023-07-29T10:04:05;6.20;;;2.50;;
52940;SDS011;62001;53.366;6.636;2023-07-29T10:06:31;4.78;;;1.77;;
52940;SDS011;62001;53.366;6.636;2023-07-29T10:08:59;5.10;;;1.90;;
52940;SDS011;62001;53.366;6.636;2023-07-29T10:11:26;5.15;;;1.70;;
52940;SDS011;62001;53.366;6.636;2023-07-29T10:13:53;4.22;;;1.50;;
52940;SDS011;62001;53.366;6.636;2023-07-29T10:16:19;3.28;;;1.45;;
52940;SDS011;62001;53.366;6.636;2023-07-29T10:18:47;4.20;;;1.85;;
52940;SDS011;62001;53.366;6.636;2023-07-29T10:21:14;6.38;;;1.92;;
52940;SDS011;62001;53.366;6.636;2023-07-29T10:23:42;3.55;;;1.60;;
52940;SDS011;62001;53.366;6.636;2023-07-29T10:26:14;4.97;;;1.75;;
52940;SDS011;62001;53.366;6.636;2023-07-29T10:28:46;3.92;;;1.70;;
52940;SDS011;62001;53.366;6.636;2023-07-29T10:31:15;5.15;;;1.90;;
52940;SDS011;62001;53.366;6.636;2023-07-29T10:33:42;5.55;;;1.70;;
52940;SDS011;62001;53.366;6.636;2023-07-29T10:36:09;5.28;;;1.60;;
52940;SDS011;62001;53.366;6.636;2023-07-29T10:38:35;3.35;;;1.77;;
52940;SDS011;62001;53.366;6.636;2023-07-29T10:41:02;4.88;;;1.50;;
52940;SDS011;62001;53.366;6.636;2023-07-29T10:43:34;4.00;;;1.40;;
52940;SDS011;62001;53.366;6.636;2023-07-29T10:46:16;3.65;;;1.63;;
52940;SDS011;62001;53.366;6.636;2023-07-29T10:48:55;3.70;;;1.80;;
52940;SDS011;62001;53.366;6.636;2023-07-29T10:51:35;3.25;;;1.50;;
52940;SDS011;62001;53.366;6.636;2023-07-29T10:54:02;5.72;;;1.70;;
52940;SDS011;62001;53.366;6.636;2023-07-29T10:56:35;3.63;;;1.45;;
52940;SDS011;62001;53.366;6.636;2023-07-29T10:59:31;2.65;;;1.40;;
52940;SDS011;62001;53.366;6.636;2023-07-29T11:01:57;3.38;;;1.38;;
52940;SDS011;62001;53.366;6.636;2023-07-29T11:04:24;6.32;;;1.85;;
52940;SDS011;62001;53.366;6.636;2023-07-29T11:07:01;4.82;;;1.70;;
52940;SDS011;62001;53.366;6.636;2023-07-29T11:12:37;4.88;;;1.92;;
52940;SDS011;62001;53.366;6.636;2023-07-29T11:17:37;3.83;;;1.80;;
52940;SDS011;62001;53.366;6.636;2023-07-29T11:20:05;5.18;;;1.80;;
52940;SDS011;62001;53.366;6.636;2023-07-29T11:22:32;6.75;;;1.75;;
52940;SDS011;62001;53.366;6.636;2023-07-29T11:24:58;4.03;;;1.55;;
52940;SDS011;62001;53.366;6.636;2023-07-29T11:27:25;5.88;;;1.98;;
52940;SDS011;62001;53.366;6.636;2023-07-29T11:29:55;3.30;;;1.90;;
52940;SDS011;62001;53.366;6.636;2023-07-29T11:32:25;8.05;;;1.92;;
52940;SDS011;62001;53.366;6.636;2023-07-29T11:34:51;6.40;;;1.95;;
52940;SDS011;62001;53.366;6.636;2023-07-29T11:37:17;3.50;;;1.88;;
52940;SDS011;62001;53.366;6.636;2023-07-29T11:39:44;8.90;;;2.22;;
52940;SDS011;62001;53.366;6.636;2023-07-29T11:42:10;8.80;;;2.25;;
52940;SDS011;62001;53.366;6.636;2023-07-29T11:44:37;6.32;;;2.40;;
52940;SDS011;62001;53.366;6.636;2023-07-29T11:47:09;6.82;;;2.20;;
52940;SDS011;62001;53.366;6.636;2023-07-29T11:49:37;8.40;;;2.60;;
52940;SDS011;62001;53.366;6.636;2023-07-29T11:52:06;4.65;;;2.38;;
52940;SDS011;62001;53.366;6.636;2023-07-29T11:54:36;5.72;;;2.15;;
52940;SDS011;62001;53.366;6.636;2023-07-29T11:57:06;4.90;;;1.90;;
52940;SDS011;62001;53.366;6.636;2023-07-29T11:59:36;8.23;;;1.63;;
52940;SDS011;62001;53.366;6.636;2023-07-29T12:02:08;5.35;;;1.70;;
52940;SDS011;62001;53.366;6.636;2023-07-29T12:04:37;4.75;;;2.08;;
52940;SDS011;62001;53.366;6.636;2023-07-29T12:07:04;5.80;;;2.40;;
52940;SDS011;62001;53.366;6.636;2023-07-29T12:09:31;4.85;;;2.30;;
52940;SDS011;62001;53.366;6.636;2023-07-29T12:11:57;6.00;;;1.90;;
52940;SDS011;62001;53.366;6.636;2023-07-29T12:14:26;5.70;;;2.22;;
52940;SDS011;62001;53.366;6.636;2023-07-29T12:16:53;11.95;;;2.55;;
52940;SDS011;62001;53.366;6.636;2023-07-29T12:19:19;10.48;;;3.20;;
52940;SDS011;62001;53.366;6.636;2023-07-29T12:21:47;7.28;;;2.58;;
52940;SDS011;62001;53.366;6.636;2023-07-29T12:24:14;7.45;;;2.83;;
52940;SDS011;62001;53.366;6.636;2023-07-29T12:26:40;8.85;;;2.97;;
52940;SDS011;62001;53.366;6.636;2023-07-29T12:29:13;8.77;;;2.95;;
52940;SDS011;62001;53.366;6.636;2023-07-29T12:31:40;6.30;;;2.80;;
52940;SDS011;62001;53.366;6.636;2023-07-29T12:34:06;5.10;;;2.35;;
52940;SDS011;62001;53.366;6.636;2023-07-29T12:36:42;4.43;;;2.00;;
52940;SDS011;62001;53.366;6.636;2023-07-29T12:39:16;3.17;;;1.80;;
52940;SDS011;62001;53.366;6.636;2023-07-29T12:41:49;4.53;;;1.85;;
52940;SDS011;62001;53.366;6.636;2023-07-29T12:44:16;4.72;;;1.80;;
52940;SDS011;62001;53.366;6.636;2023-07-29T12:46:42;3.58;;;2.00;;
52940;SDS011;62001;53.366;6.636;2023-07-29T12:49:08;2.80;;;1.70;;
52940;SDS011;62001;53.366;6.636;2023-07-29T12:51:34;2.38;;;1.70;;
52940;SDS011;62001;53.366;6.636;2023-07-29T12:54:05;4.43;;;1.70;;
52940;SDS011;62001;53.366;6.636;2023-07-29T12:56:31;2.67;;;1.83;;
52940;SDS011;62001;53.366;6.636;2023-07-29T12:58:58;7.57;;;2.10;;
52940;SDS011;62001;53.366;6.636;2023-07-29T13:01:24;3.67;;;1.98;;
52940;SDS011;62001;53.366;6.636;2023-07-29T13:03:50;4.72;;;1.98;;
52940;SDS011;62001;53.366;6.636;2023-07-29T13:06:16;3.15;;;1.75;;
52940;SDS011;62001;53.366;6.636;2023-07-29T13:08:44;3.63;;;2.10;;
52940;SDS011;62001;53.366;6.636;2023-07-29T13:11:11;5.68;;;2.20;;
52940;SDS011;62001;53.366;6.636;2023-07-29T13:13:36;3.60;;;1.90;;
52940;SDS011;62001;53.366;6.636;2023-07-29T13:16:02;5.50;;;2.08;;
52940;SDS011;62001;53.366;6.636;2023-07-29T13:18:28;4.63;;;2.17;;
52940;SDS011;62001;53.366;6.636;2023-07-29T13:20:54;6.03;;;2.22;;
52940;SDS011;62001;53.366;6.636;2023-07-29T13:23:21;6.78;;;2.40;;
52940;SDS011;62001;53.366;6.636;2023-07-29T13:25:47;5.25;;;2.28;;
52940;SDS011;62001;53.366;6.636;2023-07-29T13:28:13;3.17;;;1.80;;
52940;SDS011;62001;53.366;6.636;2023-07-29T13:30:39;5.68;;;1.92;;
52940;SDS011;62001;53.366;6.636;2023-07-29T13:33:08;4.45;;;2.03;;
52940;SDS011;62001;53.366;6.636;2023-07-29T13:35:34;6.70;;;2.10;;
52940;SDS011;62001;53.366;6.636;2023-07-29T13:38:00;4.25;;;2.05;;
52940;SDS011;62001;53.366;6.636;2023-07-29T13:40:26;8.25;;;1.92;;
52940;SDS011;62001;53.366;6.636;2023-07-29T13:42:53;4.65;;;1.73;;
52940;SDS011;62001;53.366;6.636;2023-07-29T13:45:19;3.13;;;1.67;;
52940;SDS011;62001;53.366;6.636;2023-07-29T13:47:45;3.45;;;1.60;;
52940;SDS011;62001;53.366;6.636;2023-07-29T13:50:11;3.65;;;1.90;;
52940;SDS011;62001;53.366;6.636;2023-07-29T13:52:37;3.80;;;1.73;;
52940;SDS011;62001;53.366;6.636;2023-07-29T13:55:04;6.32;;;1.70;;
52940;SDS011;62001;53.366;6.636;2023-07-29T13:57:31;5.03;;;2.05;;
52940;SDS011;62001;53.366;6.636;2023-07-29T13:59:57;7.20;;;1.90;;
52940;SDS011;62001;53.366;6.636;2023-07-29T14:02:23;4.97;;;1.85;;
52940;SDS011;62001;53.366;6.636;2023-07-29T14:04:51;7.22;;;2.10;;
52940;SDS011;62001;53.366;6.636;2023-07-29T14:07:17;4.43;;;1.95;;
52940;SDS011;62001;53.366;6.636;2023-07-29T14:09:43;5.13;;;2.05;;
52940;SDS011;62001;53.366;6.636;2023-07-29T14:12:09;7.20;;;2.38;;
52940;SDS011;62001;53.366;6.636;2023-07-29T14:14:40;8.23;;;2.10;;
52940;SDS011;62001;53.366;6.636;2023-07-29T14:17:06;5.60;;;2.00;;
52940;SDS011;62001;53.366;6.636;2023-07-29T14:19:33;6.13;;;1.98;;
52940;SDS011;62001;53.366;6.636;2023-07-29T14:21:59;4.38;;;2.25;;
52940;SDS011;62001;53.366;6.636;2023-07-29T14:24:25;4.55;;;2.00;;
52940;SDS011;62001;53.366;6.636;2023-07-29T14:26:51;8.30;;;2.08;;
52940;SDS011;62001;53.366;6.636;2023-07-29T14:29:17;5.75;;;1.85;;
52940;SDS011;62001;53.366;6.636;2023-07-29T14:31:43;5.50;;;2.30;;
52940;SDS011;62001;53.366;6.636;2023-07-29T14:34:09;5.85;;;2.20;;
52940;SDS011;62001;53.366;6.636;2023-07-29T14:36:35;8.65;;;2.70;;
52940;SDS011;62001;53.366;6.636;2023-07-29T14:39:02;4.07;;;1.90;;
52940;SDS011;62001;53.366;6.636;2023-07-29T14:41:28;6.85;;;2.30;;
52940;SDS011;62001;53.366;6.636;2023-07-29T14:43:55;3.60;;;2.10;;
52940;SDS011;62001;53.366;6.636;2023-07-29T14:46:21;4.80;;;2.17;;
52940;SDS011;62001;53.366;6.636;2023-07-29T14:48:47;5.28;;;2.20;;
52940;SDS011;62001;53.366;6.636;2023-07-29T14:51:13;5.63;;;2.05;;
52940;SDS011;62001;53.366;6.636;2023-07-29T14:53:39;6.72;;;2.45;;
52940;SDS011;62001;53.366;6.636;2023-07-29T14:56:05;6.05;;;2.15;;